createdAt,value
2022-08-26T00:01:54.481Z,53.93
2022-08-26T00:04:23.641Z,53.99
2022-08-26T00:06:51.696Z,54.26
2022-08-26T00:09:19.759Z,54.40
2022-08-26T00:11:48.030Z,54.50
2022-08-26T00:14:16.503Z,54.44
2022-08-26T00:16:47.495Z,54.88
2022-08-26T00:19:17.069Z,54.72
2022-08-26T00:21:48.740Z,55.04
2022-08-26T00:24:18.483Z,55.03
2022-08-26T00:26:46.730Z,55.03
2022-08-26T00:29:15.126Z,55.24
2022-08-26T00:31:45.002Z,55.15
2022-08-26T00:34:16.534Z,55.38
2022-08-26T00:36:47.394Z,55.30
2022-08-26T00:39:20.087Z,55.38
2022-08-26T00:41:48.278Z,55.75
2022-08-26T00:44:16.253Z,55.50
2022-08-26T00:46:47.811Z,55.94
2022-08-26T00:49:21.322Z,55.69
2022-08-26T00:51:53.714Z,55.93
2022-08-26T00:54:22.456Z,56.20
2022-08-26T00:56:56.030Z,56.31
2022-08-26T00:59:24.993Z,56.39
2022-08-26T01:01:54.473Z,56.46
2022-08-26T01:04:24.442Z,56.52
2022-08-26T01:06:55.140Z,56.49
2022-08-26T01:09:24.020Z,56.78
2022-08-26T01:11:56.420Z,56.83
2022-08-26T01:14:25.413Z,56.92
2022-08-26T01:16:53.637Z,56.85
2022-08-26T01:19:25.935Z,56.94
2022-08-26T01:21:59.013Z,57.22
2022-08-26T01:24:30.733Z,57.34
2022-08-26T01:27:02.559Z,57.40
2022-08-26T01:29:31.965Z,57.40
2022-08-26T01:32:00.228Z,57.60
2022-08-26T01:34:30.910Z,57.63
2022-08-26T01:37:03.874Z,57.87
2022-08-26T01:39:36.069Z,57.75
2022-08-26T01:42:06.387Z,57.82
2022-08-26T01:44:45.028Z,57.95
2022-08-26T01:47:14.512Z,58.17
2022-08-26T01:49:44.225Z,58.20
2022-08-26T01:52:15.146Z,58.39
2022-08-26T01:54:46.271Z,58.43
2022-08-26T01:57:19.685Z,58.66
2022-08-26T01:59:48.995Z,58.55
2022-08-26T02:02:18.385Z,58.54
2022-08-26T02:04:51.898Z,58.75
2022-08-26T02:07:21.909Z,58.83
2022-08-26T02:09:56.836Z,59.15
2022-08-26T02:12:26.443Z,59.08
2022-08-26T02:14:59.086Z,59.21
2022-08-26T02:17:30.785Z,59.34
2022-08-26T02:19:59.329Z,59.45
2022-08-26T02:22:27.344Z,59.53
2022-08-26T02:25:00.245Z,59.69
2022-08-26T02:27:33.040Z,59.79
2022-08-26T02:30:08.031Z,59.95
2022-08-26T02:32:36.269Z,59.92
2022-08-26T02:35:04.150Z,60.04
2022-08-26T02:37:32.907Z,60.28
2022-08-26T02:40:04.853Z,60.25
2022-08-26T02:42:33.149Z,60.31
2022-08-26T02:45:01.662Z,60.57
2022-08-26T02:47:30.478Z,60.64
2022-08-26T02:50:00.410Z,60.63
2022-08-26T02:52:28.433Z,60.82
2022-08-26T02:54:56.358Z,60.90
2022-08-26T02:57:25.664Z,61.02
2022-08-26T02:59:54.202Z,61.15
2022-08-26T03:02:22.470Z,61.12
2022-08-26T03:04:57.367Z,61.22
2022-08-26T03:07:26.037Z,61.41
2022-08-26T03:09:54.004Z,61.57
2022-08-26T03:12:22.028Z,61.60
2022-08-26T03:14:51.216Z,61.74
2022-08-26T03:17:21.020Z,61.89
2022-08-26T03:19:52.907Z,61.94
2022-08-26T03:22:25.204Z,62.07
2022-08-26T03:24:53.371Z,62.24
2022-08-26T03:27:21.613Z,62.13
2022-08-26T03:30:08.386Z,62.40
2022-08-26T03:32:41.528Z,62.48
2022-08-26T03:35:10.519Z,62.53
2022-08-26T03:37:38.802Z,62.76
2022-08-26T03:40:10.367Z,62.94
2022-08-26T03:42:39.233Z,62.91
2022-08-26T03:45:11.977Z,63.08
2022-08-26T03:47:41.027Z,63.18
2022-08-26T03:50:11.110Z,63.24
2022-08-26T03:52:43.558Z,63.37
2022-08-26T03:55:12.427Z,63.36
2022-08-26T03:57:40.355Z,63.41
2022-08-26T04:00:18.306Z,63.58
2022-08-26T04:02:48.715Z,63.71
2022-08-26T04:05:19.345Z,63.75
2022-08-26T04:07:48.575Z,63.84
2022-08-26T04:10:20.188Z,63.78
2022-08-26T04:12:48.333Z,64.07
2022-08-26T04:15:18.881Z,64.07
2022-08-26T04:17:47.355Z,64.02
2022-08-26T04:20:18.092Z,64.26
2022-08-26T04:22:46.530Z,64.28
2022-08-26T04:25:14.797Z,64.55
2022-08-26T04:27:42.624Z,64.62
2022-08-26T04:30:11.748Z,64.70
2022-08-26T04:32:41.049Z,64.71
2022-08-26T04:35:10.113Z,64.71
2022-08-26T04:37:38.682Z,64.85
2022-08-26T04:40:10.071Z,64.87
2022-08-26T04:42:38.263Z,65.08
2022-08-26T04:45:10.178Z,65.02
2022-08-26T04:47:38.549Z,65.16
2022-08-26T04:50:09.687Z,65.12
2022-08-26T04:52:39.001Z,65.34
2022-08-26T04:55:08.366Z,65.45
2022-08-26T04:57:36.745Z,65.54
2022-08-26T05:00:06.113Z,65.57
2022-08-26T05:02:34.291Z,65.56
2022-08-26T05:05:02.449Z,65.86
2022-08-26T05:07:32.323Z,65.87
2022-08-26T05:10:00.426Z,65.75
2022-08-26T05:12:29.205Z,66.10
2022-08-26T05:14:57.717Z,66.06
2022-08-26T05:17:27.236Z,66.18
2022-08-26T05:19:55.454Z,66.27
2022-08-26T05:22:23.351Z,66.27
2022-08-26T05:24:52.568Z,66.39
2022-08-26T05:27:20.500Z,66.36
2022-08-26T05:29:48.401Z,66.48
2022-08-26T05:32:22.406Z,66.48
2022-08-26T05:34:55.290Z,66.72
2022-08-26T05:37:23.157Z,66.79
2022-08-26T05:39:52.356Z,66.87
2022-08-26T05:42:21.463Z,66.99
2022-08-26T05:44:54.104Z,67.04
2022-08-26T05:47:24.184Z,66.99
2022-08-26T05:49:52.242Z,67.21
2022-08-26T05:52:21.207Z,67.18
2022-08-26T05:54:54.223Z,67.28
2022-08-26T05:57:23.153Z,67.29
2022-08-26T05:59:51.962Z,67.50
2022-08-26T06:02:20.539Z,67.54
2022-08-26T06:04:48.434Z,67.48
2022-08-26T06:07:17.086Z,67.58
2022-08-26T06:09:46.417Z,67.71
2022-08-26T06:12:15.806Z,67.72
2022-08-26T06:14:46.538Z,67.85
2022-08-26T06:17:16.908Z,67.92
2022-08-26T06:19:45.658Z,67.97
2022-08-26T06:22:27.386Z,68.02
2022-08-26T06:25:12.655Z,67.97
2022-08-26T06:27:41.913Z,68.13
2022-08-26T06:30:10.903Z,68.29
2022-08-26T06:32:38.710Z,68.43
2022-08-26T06:35:11.913Z,68.36
2022-08-26T06:37:40.265Z,68.36
2022-08-26T06:40:10.002Z,68.30
2022-08-26T06:42:40.851Z,68.53
2022-08-26T06:45:09.563Z,68.63
2022-08-26T06:47:39.053Z,68.64
2022-08-26T06:50:07.950Z,68.77
2022-08-26T06:52:35.804Z,68.79
2022-08-26T06:55:03.813Z,68.78
2022-08-26T06:57:32.950Z,68.66
2022-08-26T07:00:05.565Z,68.73
2022-08-26T07:02:35.543Z,69.01
2022-08-26T07:05:04.057Z,68.79
2022-08-26T07:07:32.579Z,68.84
2022-08-26T07:10:00.808Z,68.90
2022-08-26T07:12:29.445Z,69.20
2022-08-26T07:14:57.699Z,68.94
2022-08-26T07:17:26.936Z,68.87
2022-08-26T07:19:55.291Z,69.43
2022-08-26T07:22:23.136Z,69.15
2022-08-26T07:24:52.202Z,69.19
2022-08-26T07:27:20.031Z,69.37
2022-08-26T07:29:48.883Z,69.27
2022-08-26T07:32:18.471Z,69.12
2022-08-26T07:34:47.884Z,69.29
2022-08-26T07:37:16.311Z,69.14
2022-08-26T07:39:45.710Z,69.41
2022-08-26T07:42:16.244Z,69.40
2022-08-26T07:44:46.573Z,69.62
2022-08-26T07:47:25.255Z,69.38
2022-08-26T07:49:57.551Z,69.47
2022-08-26T07:52:27.634Z,69.33
2022-08-26T07:54:56.411Z,69.48
2022-08-26T07:57:24.574Z,69.52
2022-08-26T07:59:54.073Z,69.49
2022-08-26T08:02:24.334Z,69.30
2022-08-26T08:04:52.717Z,69.65
2022-08-26T08:07:38.304Z,69.35
2022-08-26T08:10:13.296Z,69.50
2022-08-26T08:12:41.546Z,69.49
2022-08-26T08:15:11.501Z,69.38
2022-08-26T08:17:39.702Z,69.35
2022-08-26T08:20:09.190Z,69.40
2022-08-26T08:22:38.651Z,69.52
2022-08-26T08:25:08.404Z,69.23
2022-08-26T08:27:40.689Z,69.15
2022-08-26T08:30:10.244Z,69.40
2022-08-26T08:32:45.035Z,69.28
2022-08-26T08:35:15.412Z,69.21
2022-08-26T08:37:46.207Z,69.26
2022-08-26T08:40:18.105Z,69.09
2022-08-26T08:42:48.498Z,69.04
2022-08-26T08:45:26.509Z,69.08
2022-08-26T08:47:57.829Z,68.95
2022-08-26T08:50:30.722Z,68.95
2022-08-26T08:53:18.336Z,68.94
2022-08-26T08:55:56.929Z,68.81
2022-08-26T08:58:32.253Z,68.52
2022-08-26T09:01:05.581Z,68.46
2022-08-26T09:03:46.810Z,68.50
2022-08-26T09:06:18.634Z,68.23
2022-08-26T09:08:50.694Z,68.46
2022-08-26T09:11:20.095Z,68.18
2022-08-26T09:13:51.615Z,68.26
2022-08-26T09:16:25.375Z,68.32
2022-08-26T09:19:06.057Z,67.89
2022-08-26T09:21:34.322Z,67.94
2022-08-26T09:24:04.179Z,68.03
2022-08-26T09:26:47.349Z,67.42
2022-08-26T09:29:23.854Z,67.40
2022-08-26T09:31:52.911Z,67.55
2022-08-26T09:34:24.323Z,67.58
2022-08-26T09:36:53.827Z,67.06
2022-08-26T09:39:37.776Z,66.99
2022-08-26T09:42:11.799Z,67.26
2022-08-26T09:44:55.763Z,66.92
2022-08-26T09:47:27.879Z,66.92
2022-08-26T09:50:04.574Z,66.70
2022-08-26T09:52:37.610Z,66.76
2022-08-26T09:55:13.532Z,66.45
2022-08-26T09:57:51.389Z,66.35
2022-08-26T10:00:34.175Z,65.82
2022-08-26T10:03:10.723Z,66.18
2022-08-26T10:05:44.203Z,65.97
2022-08-26T10:08:24.317Z,65.91
2022-08-26T10:10:56.218Z,65.36
2022-08-26T10:13:31.195Z,65.24
2022-08-26T10:16:07.475Z,65.41
2022-08-26T10:18:41.532Z,64.97
2022-08-26T10:21:13.971Z,65.17
2022-08-26T10:23:45.569Z,64.84
2022-08-26T10:26:24.077Z,64.90
2022-08-26T10:29:01.294Z,64.34
2022-08-26T10:31:38.343Z,64.42
2022-08-26T10:34:09.667Z,64.38
2022-08-26T10:37:14.965Z,64.29
2022-08-26T10:39:42.880Z,63.90
2022-08-26T10:42:22.285Z,63.84
2022-08-26T10:44:58.807Z,63.64
2022-08-26T10:47:31.708Z,63.49
2022-08-26T10:50:02.922Z,63.41
2022-08-26T10:52:41.637Z,63.21
2022-08-26T10:55:17.839Z,63.02
2022-08-26T10:57:55.510Z,62.91
2022-08-26T11:00:46.971Z,62.65
2022-08-26T11:03:31.487Z,62.62
2022-08-26T11:06:23.050Z,62.29
2022-08-26T11:08:53.065Z,62.24
2022-08-26T11:11:45.299Z,61.76
2022-08-26T11:14:42.043Z,61.94
2022-08-26T11:18:00.271Z,61.33
2022-08-26T11:20:39.340Z,61.36
2022-08-26T11:23:45.881Z,61.20
2022-08-26T11:26:35.852Z,61.07
2022-08-26T11:29:13.142Z,60.65
2022-08-26T11:31:56.147Z,60.23
2022-08-26T11:34:55.045Z,60.22
2022-08-26T11:37:29.785Z,59.93
2022-08-26T11:40:04.095Z,59.51
2022-08-26T11:42:39.365Z,59.65
2022-08-26T11:45:19.716Z,59.47
2022-08-26T11:47:49.351Z,58.98
2022-08-26T11:50:23.357Z,58.75
2022-08-26T11:52:57.090Z,58.51
2022-08-26T11:55:25.329Z,58.40
2022-08-26T11:57:56.811Z,58.09
2022-08-26T12:00:33.308Z,58.17
2022-08-26T12:03:06.661Z,57.74
2022-08-26T12:05:43.436Z,57.53
2022-08-26T12:08:17.400Z,57.57
2022-08-26T12:10:45.483Z,57.25
2022-08-26T12:13:22.670Z,57.21
2022-08-26T12:15:55.886Z,56.84
2022-08-26T12:18:29.610Z,56.80
2022-08-26T12:21:02.538Z,56.49
2022-08-26T12:23:44.558Z,56.36
2022-08-26T12:26:22.493Z,56.13
2022-08-26T12:28:54.977Z,56.11
2022-08-26T12:31:27.857Z,56.08
2022-08-26T12:33:59.040Z,55.58
2022-08-26T12:36:31.964Z,55.67
2022-08-26T12:39:08.893Z,54.96
2022-08-26T12:41:42.729Z,55.01
2022-08-26T12:44:30.693Z,54.71
2022-08-26T12:47:03.686Z,54.59
2022-08-26T12:49:32.192Z,54.22
2022-08-26T12:52:01.558Z,53.93
2022-08-26T12:54:52.418Z,53.86
2022-08-26T12:57:28.260Z,53.88
2022-08-26T13:00:40.839Z,53.16
2022-08-26T13:03:31.351Z,53.41
2022-08-26T13:06:15.593Z,52.73
2022-08-26T13:08:47.113Z,52.89
2022-08-26T13:11:18.556Z,52.40
2022-08-26T13:13:46.706Z,52.12
2022-08-26T13:16:15.475Z,52.11
2022-08-26T13:18:43.414Z,52.30
2022-08-26T13:21:16.884Z,51.90
2022-08-26T13:23:46.419Z,51.57
2022-08-26T13:26:14.485Z,51.19
2022-08-26T13:28:43.188Z,51.60
2022-08-26T13:31:12.522Z,51.10
2022-08-26T13:33:41.688Z,50.95
2022-08-26T13:36:09.790Z,50.73
2022-08-26T13:38:37.735Z,50.72
2022-08-26T13:41:08.133Z,50.38
2022-08-26T13:43:37.073Z,50.02
2022-08-26T13:46:05.380Z,50.31
2022-08-26T13:48:33.939Z,49.81
2022-08-26T13:51:02.784Z,49.65
2022-08-26T13:53:36.055Z,49.91
2022-08-26T13:56:06.051Z,49.71
2022-08-26T13:58:38.479Z,49.33
2022-08-26T14:01:06.445Z,49.02
2022-08-26T14:03:34.456Z,49.16
2022-08-26T14:06:02.527Z,48.88
2022-08-26T14:08:30.770Z,49.02
2022-08-26T14:10:58.961Z,48.83
2022-08-26T14:13:27.039Z,48.65
2022-08-26T14:15:58.675Z,48.88
2022-08-26T14:18:29.419Z,48.70
2022-08-26T14:20:57.420Z,48.61
2022-08-26T14:23:25.798Z,48.52
2022-08-26T14:25:56.291Z,48.53
2022-08-26T14:28:27.216Z,48.67
2022-08-26T14:30:59.401Z,48.58
2022-08-26T14:33:29.831Z,48.35
2022-08-26T14:36:18.564Z,48.33
2022-08-26T14:38:46.891Z,48.39
2022-08-26T14:41:17.203Z,48.23
2022-08-26T14:43:48.902Z,47.88
2022-08-26T14:46:19.386Z,47.87
2022-08-26T14:48:47.757Z,47.76
2022-08-26T14:51:15.697Z,47.61
2022-08-26T14:54:01.056Z,48.02
2022-08-26T14:56:31.392Z,48.13
2022-08-26T14:58:59.320Z,47.66
2022-08-26T15:01:31.067Z,47.52
2022-08-26T15:03:59.148Z,47.63
2022-08-26T15:06:27.452Z,47.61
2022-08-26T15:08:55.421Z,47.68
2022-08-26T15:11:23.603Z,47.36
2022-08-26T15:13:55.242Z,47.59
2022-08-26T15:16:23.758Z,47.92
2022-08-26T15:18:53.654Z,48.00
2022-08-26T15:21:22.017Z,47.98
2022-08-26T15:23:51.417Z,47.38
2022-08-26T15:26:20.567Z,47.40
2022-08-26T15:28:48.447Z,47.93
2022-08-26T15:31:17.333Z,47.55
2022-08-26T15:33:45.977Z,47.48
2022-08-26T15:36:16.122Z,47.41
2022-08-26T15:38:44.034Z,47.49
2022-08-26T15:41:12.403Z,47.30
2022-08-26T15:43:40.337Z,47.77
2022-08-26T15:46:12.002Z,47.74
2022-08-26T15:48:40.601Z,47.29
2022-08-26T15:51:19.388Z,47.82
2022-08-26T15:53:48.685Z,47.36
2022-08-26T15:56:16.699Z,47.80
2022-08-26T15:58:44.927Z,47.27
2022-08-26T16:01:12.823Z,47.26
2022-08-26T16:03:46.380Z,47.42
2022-08-26T16:06:15.704Z,47.25
2022-08-26T16:08:45.099Z,47.91
2022-08-26T16:11:15.138Z,47.40
2022-08-26T16:13:43.038Z,47.64
2022-08-26T16:16:11.142Z,47.38
2022-08-26T16:18:39.291Z,47.35
2022-08-26T16:21:13.590Z,47.86
2022-08-26T16:23:45.111Z,47.33
2022-08-26T16:26:17.857Z,47.41
2022-08-26T16:28:46.003Z,47.38
2022-08-26T16:31:14.810Z,47.36
2022-08-26T16:33:42.851Z,47.49
2022-08-26T16:36:11.877Z,47.58
2022-08-26T16:38:41.691Z,47.56
2022-08-26T16:41:10.326Z,47.69
2022-08-26T16:43:39.637Z,48.12
2022-08-26T16:46:08.243Z,47.91
2022-08-26T16:48:36.447Z,47.55
2022-08-26T16:51:04.444Z,47.92
2022-08-26T16:53:33.586Z,47.89
2022-08-26T16:56:01.505Z,48.12
2022-08-26T16:58:29.501Z,47.74
2022-08-26T17:00:58.807Z,48.19
2022-08-26T17:03:27.563Z,47.63
2022-08-26T17:05:55.466Z,48.15
2022-08-26T17:08:28.383Z,47.78
2022-08-26T17:10:57.197Z,47.81
2022-08-26T17:13:35.563Z,48.16
2022-08-26T17:16:07.798Z,48.00
2022-08-26T17:18:36.571Z,48.11
2022-08-26T17:21:06.782Z,47.77
2022-08-26T17:23:35.012Z,47.91
2022-08-26T17:26:03.077Z,48.07
2022-08-26T17:28:30.961Z,48.08
2022-08-26T17:30:59.842Z,48.02
2022-08-26T17:33:29.666Z,47.99
2022-08-26T17:35:57.732Z,48.00
2022-08-26T17:38:28.224Z,48.37
2022-08-26T17:40:56.227Z,48.13
2022-08-26T17:43:26.682Z,48.02
2022-08-26T17:45:58.955Z,48.13
2022-08-26T17:48:37.616Z,48.34
2022-08-26T17:51:08.377Z,48.41
2022-08-26T17:53:36.537Z,48.17
2022-08-26T17:56:07.076Z,48.42
2022-08-26T17:58:36.604Z,48.35
2022-08-26T18:01:06.094Z,48.54
2022-08-26T18:03:35.106Z,48.58
2022-08-26T18:06:09.744Z,48.53
2022-08-26T18:08:37.923Z,48.51
2022-08-26T18:11:09.590Z,48.49
2022-08-26T18:13:47.066Z,48.51
2022-08-26T18:16:17.889Z,48.51
2022-08-26T18:18:46.642Z,48.63
2022-08-26T18:21:17.949Z,48.38
2022-08-26T18:23:47.561Z,48.69
2022-08-26T18:26:20.668Z,48.65
2022-08-26T18:28:48.551Z,48.92
2022-08-26T18:31:17.067Z,48.80
2022-08-26T18:33:45.354Z,49.04
2022-08-26T18:36:19.474Z,48.98
2022-08-26T18:38:48.042Z,48.92
2022-08-26T18:41:20.628Z,49.00
2022-08-26T18:43:50.282Z,49.10
2022-08-26T18:46:19.004Z,49.18
2022-08-26T18:48:51.052Z,49.23
2022-08-26T18:51:23.008Z,49.22
2022-08-26T18:53:51.809Z,49.44
2022-08-26T18:56:19.966Z,49.34
2022-08-26T18:58:48.394Z,49.69
2022-08-26T19:01:17.020Z,49.43
2022-08-26T19:03:45.584Z,49.66
2022-08-26T19:06:18.033Z,49.57
2022-08-26T19:08:49.812Z,49.61
2022-08-26T19:11:31.291Z,49.78
2022-08-26T19:14:01.365Z,49.61
2022-08-26T19:16:30.825Z,49.80
2022-08-26T19:19:00.951Z,49.90
2022-08-26T19:21:29.580Z,49.81
2022-08-26T19:24:00.398Z,50.11
2022-08-26T19:26:29.601Z,49.97
2022-08-26T19:28:57.680Z,49.83
2022-08-26T19:31:25.808Z,49.88
2022-08-26T19:33:53.947Z,50.12
2022-08-26T19:36:24.824Z,50.00
2022-08-26T19:38:53.441Z,50.39
2022-08-26T19:41:29.413Z,50.18
2022-08-26T19:44:08.070Z,50.07
2022-08-26T19:49:04.988Z,50.17
2022-08-26T19:51:34.596Z,50.38
2022-08-26T19:54:02.782Z,50.44
2022-08-26T19:56:32.701Z,50.60
2022-08-26T19:59:01.196Z,50.48
2022-08-26T20:01:29.096Z,50.95
2022-08-26T20:03:57.040Z,50.60
2022-08-26T20:06:25.124Z,51.01
2022-08-26T20:08:53.924Z,51.02
2022-08-26T20:11:24.433Z,50.97
2022-08-26T20:13:53.782Z,51.06
2022-08-26T20:16:21.750Z,51.40
2022-08-26T20:19:03.520Z,51.06
2022-08-26T20:21:35.652Z,51.05
2022-08-26T20:24:07.188Z,51.24
2022-08-26T20:26:37.035Z,51.45
2022-08-26T20:29:08.198Z,51.57
2022-08-26T20:31:36.636Z,51.49
2022-08-26T20:34:05.883Z,51.88
2022-08-26T20:36:35.352Z,51.96
2022-08-26T20:39:03.243Z,51.96
2022-08-26T20:41:31.377Z,52.16
2022-08-26T20:43:59.636Z,52.27
2022-08-26T20:46:29.042Z,52.22
2022-08-26T20:48:58.242Z,52.02
2022-08-26T20:51:26.227Z,52.46
2022-08-26T20:53:54.386Z,52.33
2022-08-26T20:56:24.324Z,52.27
2022-08-26T20:58:54.063Z,52.30
2022-08-26T21:01:25.022Z,52.56
2022-08-26T21:03:55.800Z,52.90
2022-08-26T21:06:24.543Z,53.02
2022-08-26T21:08:52.761Z,53.08
2022-08-26T21:11:22.352Z,52.82
2022-08-26T21:14:07.108Z,53.29
2022-08-26T21:16:40.741Z,53.30
2022-08-26T21:19:12.020Z,53.12
2022-08-26T21:21:40.768Z,53.31
2022-08-26T21:24:09.353Z,53.49
2022-08-26T21:26:37.821Z,53.71
2022-08-26T21:29:06.706Z,53.78
2022-08-26T21:31:35.035Z,53.85
2022-08-26T21:34:03.087Z,53.90
2022-08-26T21:36:32.646Z,53.80
2022-08-26T21:39:01.498Z,54.52
2022-08-26T21:41:29.789Z,54.17
2022-08-26T21:43:59.676Z,54.48
2022-08-26T21:46:30.406Z,54.36
2022-08-26T21:49:00.191Z,54.52
2022-08-26T21:51:30.177Z,54.95
2022-08-26T21:54:00.823Z,55.17
2022-08-26T21:56:31.513Z,55.30
2022-08-26T21:59:00.711Z,55.25
2022-08-26T22:01:31.883Z,55.66
2022-08-26T22:06:40.621Z,55.47
2022-08-26T22:09:08.898Z,55.92
2022-08-26T22:11:37.023Z,55.75
2022-08-26T22:14:04.916Z,56.16
2022-08-26T22:16:32.845Z,56.30
2022-08-26T22:19:00.855Z,56.30
2022-08-26T22:21:29.017Z,56.70
2022-08-26T22:23:58.908Z,56.86
2022-08-26T22:26:34.570Z,56.76
2022-08-26T22:29:03.311Z,57.05
2022-08-26T22:31:37.542Z,57.12
2022-08-26T22:34:08.706Z,57.21
2022-08-26T22:36:43.754Z,57.44
2022-08-26T22:39:14.384Z,57.47
2022-08-26T22:41:43.069Z,57.44
2022-08-26T22:44:12.501Z,57.79
2022-08-26T22:46:42.395Z,57.61
2022-08-26T22:49:12.512Z,57.53
2022-08-26T22:51:40.486Z,57.82
2022-08-26T22:54:08.397Z,58.05
2022-08-26T22:56:38.634Z,57.84
2022-08-26T22:59:07.957Z,58.27
2022-08-26T23:01:37.451Z,58.53
2022-08-26T23:04:07.252Z,58.61
2022-08-26T23:06:37.215Z,58.49
2022-08-26T23:09:06.464Z,58.63
2022-08-26T23:11:35.235Z,59.07
2022-08-26T23:14:06.399Z,59.11
2022-08-26T23:16:39.206Z,59.33
2022-08-26T23:19:08.005Z,59.32
2022-08-26T23:21:35.922Z,59.60
2022-08-26T23:24:04.243Z,59.52
2022-08-26T23:26:32.723Z,59.73
2022-08-26T23:29:01.019Z,59.89
2022-08-26T23:31:30.369Z,60.09
2022-08-26T23:34:15.494Z,60.38
2022-08-26T23:36:45.250Z,60.44
2022-08-26T23:39:15.115Z,60.54
2022-08-26T23:41:43.281Z,60.67
2022-08-26T23:44:12.339Z,61.07
2022-08-26T23:46:41.596Z,61.03
2022-08-26T23:49:09.533Z,61.25
2022-08-26T23:51:56.007Z,61.47
2022-08-26T23:54:24.049Z,61.42
2022-08-26T23:56:51.962Z,61.66
2022-08-26T23:59:20.010Z,61.88
